Time;durP1;ratioP1;P1;durP2;ratioP2;P2;SDS_P1;SDS_P2;PMS_P1;PMS_P2;Temp;Humidity;BMP_temperature;BMP_pressure;BME280_temperature;BME280_humidity;BME280_pressure;Samples;Min_cycle;Max_cycle;Signal;HPM_P1;HPM_P2
2022/03/22 00:00:19;;;;;;;21.65;11.15;;;9.20;51.80;;;;;;5013375;28;20038;-69
2022/03/22 00:02:45;;;;;;;21.92;10.70;;;9.20;52.20;;;;;;5013465;28;20033;-69
2022/03/22 00:05:10;;;;;;;23.38;11.80;;;9.20;52.40;;;;;;5013531;28;20349;-70
2022/03/22 00:07:36;;;;;;;21.10;11.95;;;9.10;52.80;;;;;;5013800;28;20040;-70
2022/03/22 00:10:03;;;;;;;21.25;11.63;;;9.00;52.60;;;;;;5029138;28;20132;-70
2022/03/22 00:12:28;;;;;;;19.33;10.98;;;9.00;51.70;;;;;;5013082;28;20042;-70
2022/03/22 00:14:54;;;;;;;24.63;12.35;;;9.00;51.60;;;;;;5012894;28;20128;-69
2022/03/22 00:17:21;;;;;;;25.27;11.10;;;9.00;51.60;;;;;;5013058;28;20117;-69
2022/03/22 00:19:47;;;;;;;21.95;12.23;;;9.00;51.40;;;;;;5013151;28;20132;-70
2022/03/22 00:22:14;;;;;;;22.65;12.00;;;8.90;51.60;;;;;;5013053;28;20511;-70
2022/03/22 00:24:40;;;;;;;23.33;11.38;;;8.90;51.80;;;;;;5012345;28;20440;-70
2022/03/22 00:27:06;;;;;;;22.15;11.63;;;8.90;51.90;;;;;;5012897;28;20034;-69
2022/03/22 00:29:32;;;;;;;23.58;12.05;;;8.90;51.30;;;;;;5028125;28;20036;-69
2022/03/22 00:31:58;;;;;;;22.50;12.13;;;8.90;51.30;;;;;;5028126;28;20026;-70
2022/03/22 00:34:24;;;;;;;24.27;12.02;;;8.90;51.60;;;;;;5012759;28;20037;-70
2022/03/22 00:36:50;;;;;;;20.52;11.50;;;8.80;51.80;;;;;;5013218;28;20026;-69
2022/03/22 00:39:16;;;;;;;20.63;11.48;;;8.80;52.00;;;;;;5012619;28;20531;-70
2022/03/22 00:41:42;;;;;;;19.75;11.70;;;8.70;52.20;;;;;;5012482;28;20108;-69
2022/03/22 00:44:08;;;;;;;21.58;12.32;;;8.70;51.80;;;;;;5008312;28;20487;-70
2022/03/22 00:46:35;;;;;;;25.50;12.35;;;8.70;52.00;;;;;;4996108;28;20034;-69
2022/03/22 00:49:02;;;;;;;20.35;11.77;;;8.70;52.20;;;;;;5012973;28;20088;-70
2022/03/22 00:51:28;;;;;;;25.73;12.25;;;8.70;52.40;;;;;;5012547;28;20034;-70
2022/03/22 00:53:54;;;;;;;24.33;11.82;;;8.60;53.00;;;;;;5012502;28;20030;-71
2022/03/22 00:56:19;;;;;;;26.98;12.60;;;8.60;53.10;;;;;;5012344;28;20034;-70
2022/03/22 00:58:45;;;;;;;22.73;12.27;;;8.60;52.30;;;;;;5012348;28;20026;-70
2022/03/22 01:01:11;;;;;;;25.55;12.50;;;8.70;52.80;;;;;;5011673;28;20034;-71
2022/03/22 01:03:37;;;;;;;25.63;12.63;;;8.60;53.70;;;;;;5012403;28;20480;-70
2022/03/22 01:06:05;;;;;;;22.13;12.90;;;8.60;53.30;;;;;;5011363;28;20463;-70
2022/03/22 01:08:31;;;;;;;20.85;11.80;;;8.60;52.60;;;;;;5012156;28;20122;-70
2022/03/22 01:10:56;;;;;;;30.83;12.50;;;8.60;53.00;;;;;;5012199;28;20109;-70
2022/03/22 01:13:25;;;;;;;25.33;12.05;;;8.50;53.60;;;;;;5012000;28;20076;-69
2022/03/22 01:15:51;;;;;;;24.02;13.23;;;8.40;54.10;;;;;;5012460;28;20025;-70
2022/03/22 01:18:17;;;;;;;28.30;12.75;;;8.30;54.80;;;;;;5012009;28;20351;-70
2022/03/22 01:20:51;;;;;;;24.23;12.57;;;8.30;55.10;;;;;;5011820;28;20065;-69
2022/03/22 01:23:19;;;;;;;24.70;12.85;;;8.30;54.70;;;;;;5027251;28;20053;-69
2022/03/22 01:25:45;;;;;;;28.00;13.10;;;8.20;55.20;;;;;;5011784;28;20030;-70
2022/03/22 01:28:12;;;;;;;25.52;12.93;;;8.20;55.10;;;;;;5012223;28;20034;-71
2022/03/22 01:30:39;;;;;;;30.10;12.73;;;8.20;55.70;;;;;;5010847;28;20034;-70
2022/03/22 01:33:06;;;;;;;21.20;11.43;;;8.10;56.10;;;;;;5011794;28;20034;-70
2022/03/22 01:35:32;;;;;;;22.40;11.77;;;8.20;56.40;;;;;;5011649;28;20030;-70
2022/03/22 01:37:58;;;;;;;21.75;11.65;;;8.10;56.20;;;;;;5026887;28;20099;-70
2022/03/22 01:40:26;;;;;;;22.05;12.30;;;8.10;56.30;;;;;;5011526;28;20456;-69
2022/03/22 01:42:52;;;;;;;24.35;12.40;;;8.10;56.50;;;;;;5011949;28;20054;-72
2022/03/22 01:45:19;;;;;;;23.98;12.05;;;8.00;56.40;;;;;;5026830;28;20427;-70
2022/03/22 01:47:47;;;;;;;22.13;11.73;;;8.00;56.40;;;;;;5011610;28;20037;-69
2022/03/22 01:50:17;;;;;;;22.25;12.45;;;8.00;56.70;;;;;;5010489;28;20164;-71
2022/03/22 01:52:44;;;;;;;25.52;12.48;;;8.10;56.70;;;;;;5011316;28;20038;-71
2022/03/22 01:55:15;;;;;;;28.92;12.05;;;7.90;56.20;;;;;;5011754;28;20097;-70
2022/03/22 01:57:41;;;;;;;24.73;11.73;;;7.90;55.70;;;;;;4991776;28;20042;-70
2022/03/22 02:00:13;;;;;;;24.80;12.73;;;7.90;57.00;;;;;;4990501;28;20039;-70
2022/03/22 02:08:10;;;;;;;21.42;11.70;;;7.80;57.50;;;;;;4991603;28;20084;-69
2022/03/22 02:10:37;;;;;;;29.23;12.82;;;7.80;57.30;;;;;;4991968;28;20034;-72
2022/03/22 02:13:02;;;;;;;27.40;12.57;;;7.80;57.10;;;;;;4991790;28;20659;-72
2022/03/22 02:15:28;;;;;;;21.40;12.23;;;7.90;57.00;;;;;;4991680;28;20038;-71
2022/03/22 02:17:55;;;;;;;22.05;12.10;;;7.80;56.80;;;;;;4991236;28;20027;-71
2022/03/22 02:20:21;;;;;;;30.48;13.13;;;7.80;56.70;;;;;;4991086;28;20149;-71
2022/03/22 02:23:03;;;;;;;27.73;13.52;;;7.80;56.90;;;;;;4990279;28;20113;-70
2022/03/22 02:25:29;;;;;;;27.08;12.93;;;7.80;57.30;;;;;;4991265;28;20152;-70
2022/03/22 02:27:54;;;;;;;24.45;12.25;;;7.70;57.60;;;;;;4991612;28;20026;-69
2022/03/22 02:30:21;;;;;;;24.55;12.23;;;7.70;57.60;;;;;;4991172;28;20034;-70
2022/03/22 02:32:51;;;;;;;28.40;12.88;;;7.60;57.60;;;;;;4991358;28;20147;-71
2022/03/22 02:35:17;;;;;;;23.20;12.00;;;7.60;57.60;;;;;;4990987;28;20083;-71
2022/03/22 02:37:43;;;;;;;22.67;12.93;;;7.60;58.20;;;;;;4990120;28;20030;-71
2022/03/22 02:40:10;;;;;;;26.52;12.35;;;7.40;57.80;;;;;;4990447;28;20451;-71
2022/03/22 02:42:35;;;;;;;25.45;12.60;;;7.50;57.10;;;;;;4991145;28;20531;-70
2022/03/22 02:45:01;;;;;;;25.85;13.48;;;7.40;57.30;;;;;;4991152;28;20073;-71
2022/03/22 02:47:26;;;;;;;27.30;13.18;;;7.40;57.70;;;;;;4991055;28;20499;-72
2022/03/22 02:49:52;;;;;;;26.10;12.48;;;7.30;57.50;;;;;;4990233;28;20027;-70
2022/03/22 02:52:17;;;;;;;23.08;12.32;;;7.30;57.80;;;;;;4991241;28;20033;-70
2022/03/22 02:54:43;;;;;;;27.33;13.15;;;7.30;57.70;;;;;;4991397;28;20326;-71
2022/03/22 02:57:09;;;;;;;26.20;12.57;;;7.30;57.90;;;;;;4990937;28;20030;-71
2022/03/22 02:59:34;;;;;;;24.85;12.82;;;7.20;58.20;;;;;;4990876;28;20026;-69
2022/03/22 03:02:01;;;;;;;24.15;13.40;;;7.30;58.00;;;;;;4990850;28;20035;-71
2022/03/22 03:04:26;;;;;;;22.95;12.35;;;7.30;58.50;;;;;;4990894;28;20490;-71
2022/03/22 03:06:52;;;;;;;24.67;12.60;;;7.20;58.90;;;;;;4991225;28;20110;-70
2022/03/22 03:09:18;;;;;;;25.52;13.75;;;7.20;59.40;;;;;;4990978;28;20030;-71
2022/03/22 03:11:43;;;;;;;22.95;12.68;;;7.20;59.50;;;;;;4990920;28;20129;-70
2022/03/22 03:16:53;;;;;;;24.20;13.50;;;7.20;58.00;;;;;;4991084;28;20076;-71
2022/03/22 03:19:18;;;;;;;21.90;12.30;;;7.20;58.70;;;;;;4990862;28;20034;-71
2022/03/22 03:21:44;;;;;;;22.98;13.35;;;7.20;59.30;;;;;;4990914;28;20078;-71
2022/03/22 03:24:10;;;;;;;23.15;13.38;;;7.10;59.40;;;;;;4990973;28;20079;-71
2022/03/22 03:26:35;;;;;;;25.80;11.95;;;7.10;59.60;;;;;;4990890;28;20055;-70
2022/03/22 03:29:01;;;;;;;27.25;13.25;;;7.00;59.60;;;;;;4989665;28;20027;-70
2022/03/22 03:31:27;;;;;;;30.95;13.32;;;7.00;59.70;;;;;;4994419;28;20068;-70
2022/03/22 03:33:54;;;;;;;23.52;12.15;;;6.90;60.40;;;;;;4994811;28;20027;-72
2022/03/22 03:36:20;;;;;;;28.50;14.25;;;6.90;60.20;;;;;;4994365;28;20033;-70
2022/03/22 03:38:45;;;;;;;29.42;13.38;;;6.90;59.70;;;;;;4994290;28;20042;-70
2022/03/22 03:47:03;;;;;;;24.25;12.98;;;6.90;59.80;;;;;;4994373;28;20092;-69
2022/03/22 03:49:28;;;;;;;23.92;12.40;;;6.80;59.90;;;;;;4994488;28;20126;-70
2022/03/22 03:51:54;;;;;;;24.65;13.77;;;6.90;60.20;;;;;;4994449;28;20542;-69
2022/03/22 03:54:20;;;;;;;29.40;12.95;;;6.80;60.40;;;;;;4993843;28;20215;-69
2022/03/22 03:56:46;;;;;;;21.75;12.90;;;6.80;60.50;;;;;;4992722;28;20073;-70
2022/03/22 03:59:12;;;;;;;25.95;11.73;;;6.80;59.90;;;;;;4993913;28;20038;-71
2022/03/22 04:01:37;;;;;;;29.95;14.07;;;6.70;59.60;;;;;;4993848;28;20042;-69
2022/03/22 04:04:03;;;;;;;22.15;13.57;;;6.60;59.70;;;;;;4993200;28;20040;-70
2022/03/22 04:06:29;;;;;;;28.42;13.02;;;6.70;60.20;;;;;;4992789;28;20035;-69
2022/03/22 04:08:55;;;;;;;24.95;13.00;;;6.60;60.90;;;;;;4992721;28;20125;-70
2022/03/22 04:11:21;;;;;;;27.50;14.57;;;6.70;60.90;;;;;;4993655;28;20113;-71
2022/03/22 04:13:47;;;;;;;23.52;13.50;;;6.70;61.40;;;;;;4992629;28;20104;-69
2022/03/22 04:16:12;;;;;;;28.80;13.82;;;6.70;61.50;;;;;;4993814;28;20027;-69
2022/03/22 04:18:38;;;;;;;30.17;13.20;;;6.60;61.60;;;;;;4994109;28;20068;-70
2022/03/22 04:21:04;;;;;;;28.08;14.40;;;6.60;61.90;;;;;;4993371;28;20053;-69
2022/03/22 04:23:30;;;;;;;23.35;12.88;;;6.60;62.20;;;;;;4993672;28;20481;-70
2022/03/22 04:25:57;;;;;;;32.05;13.52;;;6.60;62.20;;;;;;4993440;28;20053;-69
2022/03/22 04:33:51;;;;;;;30.02;13.40;;;6.50;62.30;;;;;;5012998;28;20044;-70
2022/03/22 04:36:18;;;;;;;28.70;13.30;;;6.50;62.40;;;;;;5012867;28;20034;-70
2022/03/22 04:38:44;;;;;;;26.83;12.70;;;6.50;61.60;;;;;;5011620;28;20034;-70
2022/03/22 04:41:09;;;;;;;25.20;13.15;;;6.50;62.40;;;;;;5012632;28;20044;-70
2022/03/22 04:43:35;;;;;;;23.92;12.85;;;6.50;60.80;;;;;;5012613;28;20040;-70
2022/03/22 04:46:03;;;;;;;27.13;13.85;;;6.60;59.60;;;;;;5013042;28;20042;-70
2022/03/22 04:48:29;;;;;;;25.77;13.52;;;6.60;60.20;;;;;;5012733;28;20033;-70
2022/03/22 04:59:08;;;;;;;30.05;13.55;;;6.50;61.80;;;;;;5012479;28;20108;-70
2022/03/22 05:01:33;;;;;;;24.25;13.05;;;6.50;61.70;;;;;;5012315;28;20484;-69
2022/03/22 05:03:59;;;;;;;26.45;12.73;;;6.50;61.90;;;;;;5012706;28;20030;-70
2022/03/22 05:06:28;;;;;;;25.55;13.23;;;6.60;61.30;;;;;;5012229;28;20056;-71
2022/03/22 05:08:54;;;;;;;29.98;13.57;;;6.50;62.10;;;;;;5010985;28;20029;-70
2022/03/22 05:11:21;;;;;;;28.10;14.02;;;6.50;62.00;;;;;;5012057;28;20096;-70
2022/03/22 05:13:46;;;;;;;27.33;14.27;;;6.70;62.30;;;;;;5010871;28;20172;-70
2022/03/22 05:16:12;;;;;;;28.42;12.98;;;6.60;62.60;;;;;;5011974;28;20038;-70
2022/03/22 05:18:38;;;;;;;25.52;12.65;;;6.60;62.40;;;;;;5011278;28;20041;-70
2022/03/22 05:21:04;;;;;;;26.20;13.45;;;6.50;62.20;;;;;;5011744;28;20066;-69
2022/03/22 05:23:34;;;;;;;26.23;13.13;;;6.50;62.30;;;;;;5011798;28;20022;-70
2022/03/22 05:26:00;;;;;;;23.17;12.82;;;6.50;62.30;;;;;;5011903;28;20088;-70
2022/03/22 05:28:25;;;;;;;23.33;13.00;;;6.50;61.20;;;;;;5011714;28;20034;-71
2022/03/22 05:30:51;;;;;;;24.25;13.10;;;6.60;60.90;;;;;;5012227;28;20470;-70
2022/03/22 05:33:16;;;;;;;26.50;12.40;;;6.60;60.70;;;;;;5011662;28;20246;-70
2022/03/22 05:35:42;;;;;;;26.90;13.18;;;6.60;60.60;;;;;;5011563;28;20038;-70
2022/03/22 05:38:07;;;;;;;25.02;13.00;;;6.70;60.80;;;;;;5011643;28;20701;-69
2022/03/22 05:40:33;;;;;;;24.90;13.48;;;6.70;60.50;;;;;;5010350;28;20052;-71
2022/03/22 05:42:58;;;;;;;31.70;13.13;;;6.70;60.40;;;;;;5012138;28;20093;-70
2022/03/22 05:45:26;;;;;;;30.88;13.27;;;6.80;60.50;;;;;;5011570;28;20176;-71
2022/03/22 05:47:52;;;;;;;28.77;13.15;;;6.90;60.60;;;;;;5011423;28;20034;-70
2022/03/22 05:50:18;;;;;;;34.25;13.88;;;6.90;60.80;;;;;;5011278;28;20052;-71
2022/03/22 05:52:45;;;;;;;31.05;14.35;;;7.00;61.30;;;;;;5010876;28;20096;-70
2022/03/22 05:55:11;;;;;;;34.13;13.55;;;6.90;61.80;;;;;;5011766;28;20046;-70
2022/03/22 05:57:37;;;;;;;25.23;13.82;;;6.90;62.30;;;;;;5010227;28;20096;-70
2022/03/22 06:00:04;;;;;;;27.55;13.38;;;6.90;62.80;;;;;;5011352;28;20022;-72
2022/03/22 06:02:30;;;;;;;26.08;13.68;;;6.80;63.00;;;;;;5011370;28;20463;-70
2022/03/22 06:04:55;;;;;;;25.65;13.13;;;6.90;63.10;;;;;;5011306;28;20066;-72
2022/03/22 06:07:22;;;;;;;25.60;13.77;;;6.90;62.90;;;;;;5009937;28;20494;-71
2022/03/22 06:09:47;;;;;;;26.40;13.95;;;6.90;62.90;;;;;;5011415;28;20075;-70
2022/03/22 06:12:14;;;;;;;27.05;13.45;;;6.90;63.10;;;;;;5011066;28;20038;-70
2022/03/22 06:14:40;;;;;;;33.13;15.67;;;7.00;62.60;;;;;;5009959;28;20608;-71
2022/03/22 06:17:06;;;;;;;32.20;14.98;;;7.00;62.20;;;;;;5010925;28;20033;-71
2022/03/22 06:19:32;;;;;;;31.17;13.63;;;7.10;62.30;;;;;;5010874;28;20041;-73
2022/03/22 06:21:57;;;;;;;29.55;13.95;;;7.20;62.20;;;;;;5011034;28;20054;-71
2022/03/22 06:24:23;;;;;;;31.40;15.50;;;7.20;62.20;;;;;;5010478;28;20189;-71
2022/03/22 06:26:49;;;;;;;26.55;13.40;;;7.30;61.90;;;;;;5026412;28;20436;-72
2022/03/22 06:29:14;;;;;;;26.95;13.90;;;7.30;61.50;;;;;;5011131;28;20455;-70
2022/03/22 06:31:40;;;;;;;30.48;13.88;;;7.40;61.20;;;;;;5011112;28;20032;-70
2022/03/22 06:34:05;;;;;;;29.70;13.07;;;7.50;60.90;;;;;;5011449;28;20033;-68
2022/03/22 06:36:31;;;;;;;28.65;13.05;;;7.60;60.30;;;;;;5011161;28;20117;-71
2022/03/22 06:38:57;;;;;;;26.48;13.23;;;7.70;59.60;;;;;;5011199;28;20033;-71
2022/03/22 06:41:22;;;;;;;26.88;14.15;;;7.70;59.50;;;;;;5010941;28;20037;-71
2022/03/22 06:43:48;;;;;;;29.83;13.43;;;7.80;59.20;;;;;;5010889;28;20044;-70
2022/03/22 06:46:13;;;;;;;30.05;13.75;;;7.90;59.10;;;;;;5026262;28;20026;-71
2022/03/22 06:48:39;;;;;;;29.05;13.35;;;8.00;58.80;;;;;;5011471;28;20095;-71
2022/03/22 06:51:04;;;;;;;29.05;13.15;;;8.20;58.80;;;;;;5010974;28;20069;-71
2022/03/22 06:53:30;;;;;;;29.80;13.85;;;8.00;58.50;;;;;;5010973;28;20642;-73
2022/03/22 06:55:55;;;;;;;45.70;18.10;;;8.20;58.40;;;;;;5010800;28;20037;-72
2022/03/22 06:58:24;;;;;;;37.03;15.25;;;8.30;58.20;;;;;;5010903;28;20029;-70
2022/03/22 07:00:49;;;;;;;22.88;12.77;;;8.40;58.10;;;;;;5011110;28;20037;-70
2022/03/22 07:03:15;;;;;;;27.02;12.85;;;8.50;57.80;;;;;;5010732;28;20054;-71
2022/03/22 07:05:42;;;;;;;24.90;13.90;;;8.70;57.70;;;;;;5013368;28;20026;-71
2022/03/22 07:08:08;;;;;;;27.10;13.88;;;8.70;57.40;;;;;;5013562;28;20037;-71
2022/03/22 07:10:34;;;;;;;33.88;13.40;;;8.90;57.10;;;;;;5014227;28;20356;-70
2022/03/22 07:13:06;;;;;;;24.65;12.30;;;9.00;56.70;;;;;;5014868;28;20033;-70
2022/03/22 07:15:37;;;;;;;30.85;16.45;;;9.10;56.60;;;;;;5013986;28;20026;-69
2022/03/22 07:18:05;;;;;;;31.02;15.15;;;9.20;56.20;;;;;;5014242;28;20041;-71
2022/03/22 07:20:31;;;;;;;24.30;13.45;;;9.40;56.10;;;;;;5012834;28;20381;-74
2022/03/22 07:22:57;;;;;;;28.23;14.07;;;9.50;55.60;;;;;;5014060;28;20056;-71
2022/03/22 07:25:23;;;;;;;30.23;13.95;;;9.60;55.60;;;;;;5029456;28;20378;-72
2022/03/22 07:27:49;;;;;;;31.45;13.25;;;9.60;55.00;;;;;;5014576;28;20022;-72
2022/03/22 07:30:15;;;;;;;28.63;13.05;;;9.80;54.90;;;;;;5014277;28;20033;-71
2022/03/22 07:32:42;;;;;;;26.80;13.90;;;9.90;54.90;;;;;;5014310;28;20117;-73
2022/03/22 07:35:09;;;;;;;27.17;13.25;;;10.00;53.60;;;;;;5014129;28;20103;-70
2022/03/22 07:37:36;;;;;;;30.80;13.38;;;10.20;53.70;;;;;;5013941;28;20104;-70
2022/03/22 07:40:04;;;;;;;27.33;13.70;;;10.30;53.40;;;;;;5030112;28;20506;-71
2022/03/22 07:42:30;;;;;;;28.90;13.98;;;10.40;53.80;;;;;;5014102;28;20469;-70
2022/03/22 07:44:57;;;;;;;22.98;12.98;;;10.70;53.90;;;;;;5013823;28;20034;-70
2022/03/22 07:47:23;;;;;;;26.50;14.73;;;10.60;53.50;;;;;;5029194;28;20030;-72
2022/03/22 07:55:18;;;;;;;25.35;12.32;;;10.90;51.70;;;;;;5013747;28;20044;-70
2022/03/22 07:57:44;;;;;;;26.85;14.32;;;11.00;51.60;;;;;;5013969;28;20459;-71
2022/03/22 08:00:10;;;;;;;27.45;13.00;;;11.10;51.90;;;;;;5013313;28;20049;-70
2022/03/22 08:02:37;;;;;;;25.75;12.38;;;11.30;51.50;;;;;;5013513;28;20030;-72
2022/03/22 08:05:06;;;;;;;23.80;12.45;;;11.40;51.70;;;;;;5013208;28;20030;-72
2022/03/22 08:07:32;;;;;;;23.85;12.82;;;11.50;50.80;;;;;;5028719;28;20464;-71
2022/03/22 08:09:58;;;;;;;24.88;13.05;;;11.70;50.50;;;;;;5013746;28;20044;-70
2022/03/22 08:12:23;;;;;;;26.20;12.95;;;11.80;50.50;;;;;;5013122;28;20033;-72
2022/03/22 08:14:49;;;;;;;19.77;11.82;;;11.90;50.20;;;;;;5013014;28;20029;-73
2022/03/22 08:17:14;;;;;;;21.60;12.82;;;12.00;50.00;;;;;;5012966;28;20026;-72
2022/03/22 08:19:40;;;;;;;23.63;12.88;;;12.10;49.90;;;;;;5011702;28;20022;-71
2022/03/22 08:22:05;;;;;;;21.60;12.23;;;12.20;49.70;;;;;;5012979;28;20045;-71
2022/03/22 08:24:31;;;;;;;24.13;12.38;;;12.30;49.80;;;;;;5013057;28;20034;-72
2022/03/22 08:26:57;;;;;;;21.77;11.80;;;12.40;49.10;;;;;;5028408;28;20480;-73
2022/03/22 08:29:25;;;;;;;24.83;12.55;;;12.60;49.20;;;;;;5013045;28;20041;-71
2022/03/22 08:31:52;;;;;;;32.67;12.73;;;12.70;49.00;;;;;;5028155;28;20404;-72
2022/03/22 08:34:17;;;;;;;22.23;12.68;;;12.80;48.60;;;;;;5012738;28;20033;-72
2022/03/22 08:36:43;;;;;;;22.70;12.75;;;12.90;48.10;;;;;;5013079;28;20445;-74
2022/03/22 08:39:10;;;;;;;28.77;12.63;;;13.10;47.90;;;;;;5012592;28;20026;-73
2022/03/22 08:41:36;;;;;;;26.67;12.70;;;13.40;48.00;;;;;;5028064;28;20041;-72
2022/03/22 08:44:02;;;;;;;26.50;11.93;;;13.60;47.70;;;;;;5028039;28;20029;-73
2022/03/22 08:46:28;;;;;;;23.55;12.65;;;13.70;47.40;;;;;;5012463;28;20022;-71
2022/03/22 08:48:55;;;;;;;22.92;12.73;;;13.80;47.10;;;;;;5012946;28;20044;-72
2022/03/22 08:51:24;;;;;;;20.10;11.98;;;14.00;47.50;;;;;;5012514;28;20145;-70
2022/03/22 08:53:50;;;;;;;23.73;11.50;;;14.10;46.70;;;;;;5012526;28;20091;-73
2022/03/22 08:56:16;;;;;;;24.88;12.82;;;14.30;47.00;;;;;;5012492;28;20034;-72
2022/03/22 08:58:41;;;;;;;26.85;13.45;;;14.40;46.50;;;;;;5008032;28;20468;-74
2022/03/22 09:01:07;;;;;;;21.58;12.57;;;14.70;46.30;;;;;;5008341;28;20345;-72
2022/03/22 09:03:35;;;;;;;22.90;13.07;;;15.30;46.80;;;;;;5011832;28;20430;-69
2022/03/22 09:06:16;;;;;;;21.80;12.25;;;16.80;45.80;;;;;;5012303;28;20037;-70
2022/03/22 09:08:42;;;;;;;20.00;12.32;;;18.50;44.80;;;;;;5012070;28;20127;-69
2022/03/22 09:11:09;;;;;;;23.35;13.40;;;19.90;41.60;;;;;;5012151;28;20065;-71
2022/03/22 09:13:35;;;;;;;19.38;12.05;;;21.00;41.30;;;;;;5011881;28;20030;-71
2022/03/22 09:16:05;;;;;;;19.70;12.30;;;22.10;38.80;;;;;;5012771;28;20022;-70
2022/03/22 09:18:30;;;;;;;23.63;12.30;;;22.80;37.70;;;;;;5012005;28;20029;-69
2022/03/22 09:20:56;;;;;;;22.80;12.23;;;23.50;36.60;;;;;;5011608;28;20046;-71
2022/03/22 09:23:21;;;;;;;20.83;13.15;;;24.30;36.10;;;;;;5011911;28;20125;-71
2022/03/22 09:25:47;;;;;;;25.33;14.07;;;25.10;35.50;;;;;;5027119;28;20029;-71
2022/03/22 09:28:14;;;;;;;22.75;13.00;;;25.40;33.60;;;;;;5010985;28;20021;-73
2022/03/22 09:30:40;;;;;;;18.05;12.35;;;26.30;33.60;;;;;;5012092;28;20515;-73
2022/03/22 09:33:07;;;;;;;19.17;11.93;;;26.90;31.50;;;;;;5027259;28;20042;-72
2022/03/22 09:35:35;;;;;;;23.48;13.07;;;26.90;31.90;;;;;;5011738;28;20040;-74
2022/03/22 09:38:02;;;;;;;22.90;13.07;;;26.80;30.60;;;;;;5011693;28;20030;-74
2022/03/22 09:40:27;;;;;;;22.02;12.80;;;27.10;30.30;;;;;;5011874;28;20022;-74
2022/03/22 09:42:55;;;;;;;19.13;12.73;;;27.70;30.30;;;;;;5012060;28;20018;-71
2022/03/22 09:45:30;;;;;;;20.58;13.25;;;28.50;29.80;;;;;;5011558;28;20080;-72
2022/03/22 09:47:59;;;;;;;22.30;14.30;;;29.00;29.90;;;;;;5011500;28;20030;-72
2022/03/22 09:53:12;;;;;;;19.02;13.13;;;28.60;28.70;;;;;;5011619;28;20084;-70
2022/03/22 09:55:38;;;;;;;19.35;13.02;;;28.90;29.00;;;;;;5026696;28;20029;-72
2022/03/22 09:58:04;;;;;;;18.70;13.15;;;28.50;28.20;;;;;;5011625;28;20032;-72
2022/03/22 10:00:29;;;;;;;24.95;12.82;;;28.10;28.30;;;;;;5011466;28;20044;-71
2022/03/22 10:02:55;;;;;;;21.20;13.45;;;28.60;28.00;;;;;;5011060;28;20030;-70
2022/03/22 10:05:26;;;;;;;22.60;13.05;;;28.90;28.50;;;;;;5011400;28;20151;-70
2022/03/22 10:07:58;;;;;;;18.95;13.68;;;29.20;27.80;;;;;;5026524;28;20030;-72
2022/03/22 10:10:24;;;;;;;19.30;13.30;;;29.40;27.40;;;;;;5026445;28;20452;-70
2022/03/22 10:13:01;;;;;;;21.27;13.93;;;29.50;27.50;;;;;;5011572;28;20105;-73
2022/03/22 10:15:29;;;;;;;;;;;29.50;27.00;;;;;;5011313;28;20038;-72
2022/03/22 10:18:02;;;;;;;21.08;14.60;;;29.10;27.60;;;;;;5011130;28;20003;-72
2022/03/22 10:20:28;;;;;;;18.65;13.35;;;29.70;28.60;;;;;;5010726;28;20468;-70
2022/03/22 10:23:01;;;;;;;25.70;14.00;;;29.80;26.80;;;;;;5010961;28;20133;-72
2022/03/22 10:25:31;;;;;;;23.17;14.50;;;30.90;27.30;;;;;;5026255;28;20021;-72
2022/03/22 10:27:57;;;;;;;19.45;12.85;;;30.00;26.60;;;;;;5011026;28;20057;-70
2022/03/22 10:30:23;;;;;;;22.85;13.82;;;30.90;27.40;;;;;;5010613;28;20041;-72
2022/03/22 10:32:53;;;;;;;25.50;13.10;;;30.40;26.40;;;;;;5010761;28;20363;-69
2022/03/22 10:35:25;;;;;;;18.42;12.82;;;31.10;26.20;;;;;;5026098;28;20122;-70
2022/03/22 10:37:59;;;;;;;24.67;14.45;;;30.70;25.80;;;;;;5010537;28;20092;-70
2022/03/22 10:40:26;;;;;;;21.20;12.88;;;31.30;26.50;;;;;;5010733;28;20054;-70
2022/03/22 10:42:59;;;;;;;20.83;12.77;;;31.50;25.50;;;;;;5011113;28;20105;-69
2022/03/22 10:45:29;;;;;;;22.02;12.80;;;30.30;25.60;;;;;;5010858;28;20041;-70
2022/03/22 10:47:56;;;;;;;19.92;13.23;;;30.30;25.50;;;;;;5010800;28;20046;-71
2022/03/22 10:50:22;;;;;;;20.60;14.35;;;29.80;26.10;;;;;;5026085;28;20340;-70
2022/03/22 10:52:49;;;;;;;17.35;12.30;;;30.40;26.30;;;;;;5010698;28;20040;-71
2022/03/22 10:55:19;;;;;;;22.23;13.57;;;30.50;26.30;;;;;;5010725;28;20029;-71
2022/03/22 10:57:47;;;;;;;23.90;14.82;;;31.80;25.50;;;;;;5010810;28;20502;-73
2022/03/22 11:00:13;;;;;;;;;;;32.40;24.60;;;;;;5011144;28;20165;-72
2022/03/22 11:02:39;;;;;;;21.65;14.18;;;32.10;24.50;;;;;;5010383;28;20379;-71
2022/03/22 11:05:06;;;;;;;23.73;14.55;;;31.80;24.90;;;;;;5010432;28;20281;-70
2022/03/22 11:07:34;;;;;;;26.13;14.10;;;31.10;24.70;;;;;;5010319;28;20355;-72
2022/03/22 11:10:00;;;;;;;26.92;14.85;;;30.20;24.80;;;;;;5010627;28;20084;-70
2022/03/22 11:12:27;;;;;;;26.88;18.88;;;30.30;24.80;;;;;;5010612;28;20034;-73
2022/03/22 11:14:55;;;;;;;25.58;19.65;;;31.40;24.80;;;;;;5010306;28;20037;-73
2022/03/22 11:17:22;;;;;;;21.33;14.15;;;30.40;24.40;;;;;;5010220;28;20113;-72
2022/03/22 11:19:49;;;;;;;29.10;17.88;;;30.70;24.70;;;;;;5010240;28;20034;-71
2022/03/22 11:22:17;;;;;;;24.50;14.33;;;31.90;24.70;;;;;;5009998;28;20046;-71
2022/03/22 11:24:44;;;;;;;22.50;14.68;;;32.10;24.40;;;;;;5010580;28;20109;-73
2022/03/22 11:27:10;;;;;;;19.35;14.57;;;32.10;24.20;;;;;;5010089;28;20022;-71
2022/03/22 11:29:39;;;;;;;20.75;14.18;;;31.90;24.10;;;;;;5025502;28;20076;-70
2022/03/22 11:34:57;;;;;;;19.17;14.30;;;31.60;23.90;;;;;;5010192;28;20049;-71
2022/03/22 11:37:33;;;;;;;27.25;15.80;;;31.60;23.90;;;;;;5009870;28;20022;-73
2022/03/22 11:42:54;;;;;;;20.80;15.23;;;30.70;24.80;;;;;;5010213;28;20032;-73
2022/03/22 11:45:20;;;;;;;28.00;14.90;;;29.80;25.00;;;;;;5005699;28;20113;-76
2022/03/22 11:47:49;;;;;;;19.98;12.65;;;29.10;24.70;;;;;;5003262;28;20460;-73
2022/03/22 11:50:18;;;;;;;22.83;13.60;;;28.30;24.70;;;;;;5006140;28;20476;-72
2022/03/22 11:52:45;;;;;;;21.88;13.48;;;27.40;25.40;;;;;;4993895;28;20041;-75
2022/03/22 11:55:18;;;;;;;20.40;13.05;;;26.90;25.70;;;;;;4993415;28;20077;-71
2022/03/22 11:57:46;;;;;;;20.17;13.18;;;26.40;25.30;;;;;;5013465;28;20092;-73
2022/03/22 12:00:15;;;;;;;20.45;14.25;;;26.00;25.60;;;;;;5013383;28;20030;-73
2022/03/22 12:02:44;;;;;;;24.23;14.80;;;25.40;26.50;;;;;;5028780;28;20329;-70
2022/03/22 12:05:10;;;;;;;26.48;13.88;;;25.00;27.20;;;;;;5013531;28;20387;-70
2022/03/22 12:07:38;;;;;;;23.50;13.82;;;24.80;27.40;;;;;;5013142;28;20406;-70
2022/03/22 12:10:09;;;;;;;20.00;13.20;;;24.60;27.40;;;;;;5013551;28;20036;-70
2022/03/22 12:12:37;;;;;;;25.33;13.77;;;24.30;26.80;;;;;;5013184;28;20026;-70
2022/03/22 12:15:06;;;;;;;22.70;14.13;;;24.10;27.30;;;;;;5013225;28;20030;-73
2022/03/22 12:17:32;;;;;;;24.15;12.80;;;23.80;27.40;;;;;;5013076;28;20030;-72
2022/03/22 12:20:05;;;;;;;20.95;12.77;;;23.60;27.70;;;;;;5012734;28;20030;-73
2022/03/22 12:22:31;;;;;;;22.75;12.30;;;23.40;27.10;;;;;;5012923;28;20095;-71
2022/03/22 12:24:58;;;;;;;22.58;13.40;;;23.40;27.70;;;;;;5013172;28;20033;-73
2022/03/22 12:27:24;;;;;;;28.43;12.97;;;23.20;27.60;;;;;;5012707;28;20042;-72
2022/03/22 12:29:49;;;;;;;20.05;13.15;;;23.20;27.90;;;;;;5012953;28;20095;-71
2022/03/22 12:32:18;;;;;;;20.67;12.35;;;23.00;27.60;;;;;;5012626;28;20026;-70
2022/03/22 12:34:45;;;;;;;19.40;12.27;;;22.90;27.70;;;;;;5012612;28;20033;-72
2022/03/22 12:37:12;;;;;;;23.50;11.70;;;22.80;27.30;;;;;;5028628;28;20033;-72
2022/03/22 12:39:41;;;;;;;21.05;11.48;;;22.70;27.10;;;;;;4993010;28;20069;-71
2022/03/22 12:42:07;;;;;;;22.08;11.13;;;22.70;27.10;;;;;;4992869;28;20053;-72
2022/03/22 12:44:34;;;;;;;20.38;11.82;;;22.50;27.10;;;;;;4992976;28;20520;-72
2022/03/22 12:47:01;;;;;;;21.90;11.90;;;22.40;27.80;;;;;;4992909;28;20030;-70
2022/03/22 12:49:27;;;;;;;26.00;11.85;;;22.30;27.90;;;;;;4991682;28;20022;-71
2022/03/22 12:51:53;;;;;;;23.65;11.23;;;22.20;27.70;;;;;;4993237;28;20190;-70
2022/03/22 12:54:19;;;;;;;33.70;13.60;;;22.10;27.40;;;;;;4992605;28;20093;-74
2022/03/22 12:56:47;;;;;;;24.42;12.65;;;22.10;27.60;;;;;;4992847;28;20425;-74
2022/03/22 12:59:23;;;;;;;27.92;12.63;;;22.00;28.00;;;;;;4991490;28;20096;-72
2022/03/22 13:01:57;;;;;;;19.00;11.77;;;22.00;28.30;;;;;;4991728;28;20057;-69
2022/03/22 13:04:29;;;;;;;20.77;12.50;;;21.80;28.40;;;;;;4994034;28;20113;-72
2022/03/22 13:06:56;;;;;;;20.05;12.63;;;21.70;28.30;;;;;;5012647;28;20036;-73
2022/03/22 13:12:14;;;;;;;20.73;11.52;;;21.60;28.20;;;;;;5011942;28;20053;-71
2022/03/22 13:17:45;;;;;;;24.73;12.55;;;21.50;28.70;;;;;;5011780;28;20097;-75